createdAt,value
2017-09-29T00:02:00.271Z,8.80
2017-09-29T00:04:27.794Z,9.47
2017-09-29T00:06:55.339Z,12.03
2017-09-29T00:09:22.875Z,15.30
2017-09-29T00:11:50.418Z,11.70
2017-09-29T00:14:17.951Z,11.97
2017-09-29T00:16:45.494Z,11.93
2017-09-29T00:19:13.782Z,11.80
2017-09-29T00:21:41.322Z,10.70
2017-09-29T00:24:08.858Z,11.23
2017-09-29T00:26:36.406Z,14.50
2017-09-29T00:29:04.704Z,12.80
2017-09-29T00:31:32.251Z,12.27
2017-09-29T00:33:59.784Z,11.60
2017-09-29T00:36:27.332Z,10.50
2017-09-29T00:38:54.860Z,10.20
2017-09-29T00:41:22.404Z,9.33
2017-09-29T00:43:49.932Z,10.60
2017-09-29T00:46:17.477Z,11.90
2017-09-29T00:48:44.989Z,10.63
2017-09-29T00:51:12.532Z,10.03
2017-09-29T00:53:40.823Z,10.90
2017-09-29T00:56:08.362Z,8.43
2017-09-29T00:58:35.888Z,9.50
2017-09-29T01:01:03.437Z,9.10
2017-09-29T01:03:30.980Z,8.43
2017-09-29T01:05:58.515Z,17.83
2017-09-29T01:08:26.824Z,12.67
2017-09-29T01:10:54.356Z,14.63
2017-09-29T01:13:21.910Z,12.30
2017-09-29T01:15:49.444Z,13.47
2017-09-29T01:18:17.022Z,11.67
2017-09-29T01:20:44.547Z,12.83
2017-09-29T01:23:12.088Z,16.60
2017-09-29T01:25:39.623Z,11.50
2017-09-29T01:28:07.167Z,14.27
2017-09-29T01:30:34.696Z,15.40
2017-09-29T01:33:02.239Z,11.07
2017-09-29T01:35:29.763Z,12.47
2017-09-29T01:37:57.306Z,11.67
2017-09-29T01:40:24.826Z,10.80
2017-09-29T01:42:53.134Z,11.53
2017-09-29T01:45:21.586Z,10.90
2017-09-29T01:47:49.132Z,12.57
2017-09-29T01:50:16.654Z,11.23
2017-09-29T01:52:44.196Z,11.60
2017-09-29T01:55:11.723Z,11.10
2017-09-29T01:57:39.268Z,12.77
2017-09-29T02:00:06.807Z,14.47
2017-09-29T02:02:34.359Z,17.20
2017-09-29T02:05:01.892Z,12.43
2017-09-29T02:07:29.438Z,16.17
2017-09-29T02:09:56.968Z,14.20
2017-09-29T02:12:24.518Z,18.37
2017-09-29T02:14:52.048Z,16.30
2017-09-29T02:17:19.589Z,18.90
2017-09-29T02:19:47.903Z,18.97
2017-09-29T02:22:15.455Z,17.17
2017-09-29T02:24:43.752Z,14.53
2017-09-29T02:27:11.336Z,18.27
2017-09-29T02:29:38.850Z,26.20
2017-09-29T02:32:07.171Z,23.27
2017-09-29T02:34:34.704Z,17.43
2017-09-29T02:37:03.024Z,15.20
2017-09-29T02:39:31.325Z,17.37
2017-09-29T02:41:58.871Z,16.87
2017-09-29T02:44:26.403Z,17.17
2017-09-29T02:46:54.719Z,18.33
2017-09-29T02:49:22.244Z,22.90
2017-09-29T02:51:49.790Z,15.70
2017-09-29T02:54:17.326Z,16.47
2017-09-29T02:56:53.871Z,16.37
2017-09-29T02:59:22.927Z,17.50
2017-09-29T03:01:52.882Z,20.87
2017-09-29T03:04:23.843Z,26.93
2017-09-29T03:06:52.159Z,39.70
2017-09-29T03:09:19.695Z,42.40
2017-09-29T03:11:48.007Z,40.17
2017-09-29T03:14:15.532Z,45.17
2017-09-29T03:16:43.063Z,38.17
2017-09-29T03:19:10.605Z,51.00
2017-09-29T03:21:38.140Z,49.63
2017-09-29T03:24:06.454Z,50.57
2017-09-29T03:26:34.743Z,43.30
2017-09-29T03:29:03.051Z,58.37
2017-09-29T03:31:30.580Z,41.53
2017-09-29T03:33:58.131Z,29.27
2017-09-29T03:36:25.654Z,26.07
2017-09-29T03:38:53.193Z,26.57
2017-09-29T03:41:20.721Z,22.37
2017-09-29T03:43:48.267Z,23.70
2017-09-29T03:46:15.781Z,23.33
2017-09-29T03:48:43.332Z,24.43
2017-09-29T03:51:12.386Z,27.83
2017-09-29T03:53:42.138Z,23.03
2017-09-29T03:56:10.201Z,31.43
2017-09-29T03:58:38.759Z,30.30
2017-09-29T04:01:06.287Z,27.37
2017-09-29T04:03:33.835Z,30.60
2017-09-29T04:06:01.367Z,33.03
2017-09-29T04:08:28.919Z,25.77
2017-09-29T04:10:56.438Z,26.63
2017-09-29T04:13:23.986Z,28.50
2017-09-29T04:15:51.510Z,39.27
2017-09-29T04:18:19.072Z,28.90
2017-09-29T04:20:47.366Z,27.37
2017-09-29T04:23:14.912Z,28.07
2017-09-29T04:25:42.437Z,29.43
2017-09-29T04:28:09.979Z,28.97
2017-09-29T04:30:37.498Z,28.67
2017-09-29T04:33:05.041Z,29.53
2017-09-29T04:35:32.571Z,42.73
2017-09-29T04:38:00.115Z,39.07
2017-09-29T04:40:27.640Z,33.27
2017-09-29T04:42:55.186Z,35.30
2017-09-29T04:45:23.475Z,29.17
2017-09-29T04:47:51.035Z,25.53
2017-09-29T04:50:18.562Z,25.63
2017-09-29T04:52:46.102Z,26.10
2017-09-29T04:55:13.625Z,25.97
2017-09-29T04:57:41.172Z,32.07
2017-09-29T05:00:08.699Z,40.53
2017-09-29T05:02:36.250Z,26.77
2017-09-29T05:05:03.778Z,30.97
2017-09-29T05:07:31.322Z,25.80
2017-09-29T05:09:58.847Z,25.57
2017-09-29T05:12:27.158Z,41.93
2017-09-29T05:14:54.682Z,44.73
2017-09-29T05:17:22.990Z,32.40
2017-09-29T05:19:50.518Z,33.20
2017-09-29T05:22:18.847Z,26.70
2017-09-29T05:24:46.375Z,24.77
2017-09-29T05:27:13.905Z,25.53
2017-09-29T05:29:41.465Z,22.00
2017-09-29T05:32:08.994Z,22.33
2017-09-29T05:34:37.305Z,21.53
2017-09-29T05:37:04.883Z,35.63
2017-09-29T05:39:32.427Z,36.03
2017-09-29T05:41:59.951Z,34.87
2017-09-29T05:44:27.496Z,34.83
2017-09-29T05:46:55.170Z,31.97
2017-09-29T05:49:22.726Z,39.33
2017-09-29T05:51:50.251Z,37.70
2017-09-29T05:54:18.564Z,45.83
2017-09-29T05:56:46.098Z,46.37
2017-09-29T05:59:13.643Z,48.20
2017-09-29T06:01:41.175Z,51.67
2017-09-29T06:04:08.730Z,51.73
2017-09-29T06:06:36.260Z,55.60
2017-09-29T06:09:04.629Z,62.17
2017-09-29T06:11:32.931Z,60.27
2017-09-29T06:14:00.484Z,60.50
2017-09-29T06:16:28.011Z,56.83
2017-09-29T06:18:56.323Z,58.17
2017-09-29T06:21:23.854Z,53.80
2017-09-29T06:23:52.169Z,54.00
2017-09-29T06:26:19.690Z,52.30
2017-09-29T06:28:47.234Z,52.90
2017-09-29T06:31:14.762Z,52.17
2017-09-29T06:33:42.307Z,48.80
2017-09-29T06:36:09.830Z,55.17
2017-09-29T06:38:37.375Z,51.40
2017-09-29T06:41:04.903Z,52.63
2017-09-29T06:43:33.216Z,47.63
2017-09-29T06:46:00.747Z,42.47
2017-09-29T06:48:29.059Z,46.10
2017-09-29T06:50:56.596Z,47.47
2017-09-29T06:53:24.139Z,61.27
2017-09-29T06:55:51.662Z,53.80
2017-09-29T06:58:19.988Z,51.43
2017-09-29T07:00:48.286Z,45.60
2017-09-29T07:03:15.830Z,41.00
2017-09-29T07:05:43.356Z,39.70
2017-09-29T07:08:10.903Z,30.40
2017-09-29T07:10:38.423Z,41.30
2017-09-29T07:13:05.963Z,33.57
2017-09-29T07:15:33.495Z,34.80
2017-09-29T07:18:01.042Z,29.70
2017-09-29T07:20:28.575Z,31.37
2017-09-29T07:22:56.893Z,28.37
2017-09-29T07:25:25.879Z,32.40
2017-09-29T07:27:53.989Z,30.00
2017-09-29T07:30:21.888Z,29.83
2017-09-29T07:32:50.284Z,26.80
2017-09-29T07:35:17.835Z,27.73
2017-09-29T07:37:45.359Z,30.50
2017-09-29T07:40:12.906Z,37.97
2017-09-29T07:42:40.429Z,40.07
2017-09-29T07:45:07.975Z,37.90
2017-09-29T07:47:36.274Z,47.90
2017-09-29T07:50:03.819Z,41.40
2017-09-29T07:52:31.346Z,42.00
2017-09-29T07:54:59.734Z,44.80
2017-09-29T07:57:28.652Z,43.20
2017-09-29T07:59:56.717Z,47.57
2017-09-29T08:02:25.260Z,37.63
2017-09-29T08:04:56.339Z,41.57
2017-09-29T08:07:25.738Z,40.53
2017-09-29T08:09:54.504Z,36.10
2017-09-29T08:12:23.319Z,37.13
2017-09-29T08:14:51.500Z,36.93
2017-09-29T08:17:20.913Z,43.73
2017-09-29T08:19:49.203Z,45.60
2017-09-29T08:22:16.755Z,34.70
2017-09-29T08:24:44.283Z,29.77
2017-09-29T08:27:12.610Z,29.13
2017-09-29T08:29:40.139Z,31.13
2017-09-29T08:32:07.684Z,29.30
2017-09-29T08:34:35.214Z,30.70
2017-09-29T08:37:03.527Z,35.97
2017-09-29T08:39:31.051Z,35.67
2017-09-29T08:41:59.369Z,43.30
2017-09-29T08:44:26.900Z,39.53
2017-09-29T08:46:54.425Z,42.77
2017-09-29T08:49:21.969Z,48.27
2017-09-29T08:51:49.491Z,61.97
2017-09-29T08:54:17.805Z,45.53
2017-09-29T08:56:45.339Z,43.43
2017-09-29T08:59:13.656Z,41.67
2017-09-29T09:01:41.179Z,44.00
2017-09-29T09:04:08.743Z,47.93
2017-09-29T09:06:36.262Z,38.93
2017-09-29T09:09:04.572Z,51.30
2017-09-29T09:11:32.094Z,45.70
2017-09-29T09:14:00.398Z,41.83
2017-09-29T09:16:27.948Z,41.67
2017-09-29T09:18:55.470Z,41.47
2017-09-29T09:21:23.015Z,38.80
2017-09-29T09:23:50.543Z,43.50
2017-09-29T09:26:18.087Z,39.80
2017-09-29T09:28:46.387Z,38.67
2017-09-29T09:31:14.703Z,40.33
2017-09-29T09:33:42.235Z,42.13
2017-09-29T09:36:09.784Z,42.03
2017-09-29T09:38:37.315Z,42.77
2017-09-29T09:41:04.862Z,52.43
2017-09-29T09:43:32.388Z,52.03
2017-09-29T09:46:00.691Z,57.70
2017-09-29T09:48:28.224Z,54.37
2017-09-29T09:50:55.771Z,47.00
2017-09-29T09:53:23.304Z,58.93
2017-09-29T09:55:50.831Z,47.53
2017-09-29T09:58:18.379Z,45.57
2017-09-29T10:00:45.907Z,44.33
2017-09-29T10:03:13.454Z,48.07
2017-09-29T10:05:40.980Z,52.53
2017-09-29T10:08:08.523Z,41.43
2017-09-29T10:10:36.050Z,51.33
2017-09-29T10:13:04.359Z,56.90
2017-09-29T10:15:31.888Z,46.40
2017-09-29T10:17:59.436Z,60.00
2017-09-29T10:20:26.983Z,57.53
2017-09-29T10:22:54.526Z,47.47
2017-09-29T10:25:22.821Z,44.77
2017-09-29T10:27:51.131Z,48.47
2017-09-29T10:30:18.660Z,56.93
2017-09-29T10:32:46.984Z,51.40
2017-09-29T10:35:14.514Z,42.90
2017-09-29T10:37:42.041Z,47.63
2017-09-29T10:40:09.590Z,45.93
2017-09-29T10:42:37.114Z,44.77
2017-09-29T10:45:04.661Z,41.50
2017-09-29T10:47:32.960Z,40.20
2017-09-29T10:50:00.508Z,31.37
2017-09-29T10:52:28.803Z,41.77
2017-09-29T10:54:57.118Z,36.77
2017-09-29T10:57:24.651Z,39.10
2017-09-29T10:59:52.194Z,41.13
2017-09-29T11:02:19.714Z,40.73
2017-09-29T11:04:47.266Z,40.23
2017-09-29T11:07:14.804Z,40.53
2017-09-29T11:09:43.118Z,39.40
2017-09-29T11:12:11.425Z,39.93
2017-09-29T11:14:38.968Z,38.73
2017-09-29T11:17:06.496Z,43.50
2017-09-29T11:19:34.044Z,39.80
2017-09-29T11:22:01.572Z,35.37
2017-09-29T11:24:29.128Z,39.30
2017-09-29T11:26:56.663Z,47.57
2017-09-29T11:29:24.190Z,41.37
2017-09-29T11:31:51.738Z,44.83
2017-09-29T11:34:19.266Z,48.73
2017-09-29T11:36:46.814Z,44.10
2017-09-29T11:39:14.342Z,45.93
2017-09-29T11:41:41.887Z,45.97
2017-09-29T11:44:10.179Z,48.63
2017-09-29T11:46:38.485Z,42.50
2017-09-29T11:49:06.014Z,47.03
2017-09-29T11:51:33.550Z,49.73
2017-09-29T11:54:01.075Z,54.77
2017-09-29T11:56:28.623Z,53.80
2017-09-29T11:58:56.143Z,55.33
2017-09-29T12:01:23.691Z,52.93
2017-09-29T12:03:51.229Z,49.60
2017-09-29T12:06:19.524Z,50.70
2017-09-29T12:08:47.065Z,58.47
2017-09-29T12:11:14.588Z,55.87
2017-09-29T12:13:42.139Z,58.37
2017-09-29T12:16:09.669Z,56.87
2017-09-29T12:18:37.218Z,52.00
2017-09-29T12:21:04.751Z,53.77
2017-09-29T12:23:32.311Z,49.47
2017-09-29T12:26:00.608Z,48.97
2017-09-29T12:28:28.131Z,50.50
2017-09-29T12:30:55.691Z,55.30
2017-09-29T12:33:23.224Z,56.20
2017-09-29T12:35:51.541Z,59.93
2017-09-29T12:38:19.102Z,53.70
2017-09-29T12:40:47.424Z,51.00
2017-09-29T12:43:14.951Z,54.17
2017-09-29T12:45:42.504Z,58.53
2017-09-29T12:48:10.031Z,60.67
2017-09-29T12:50:37.579Z,59.53
2017-09-29T12:53:05.108Z,54.43
2017-09-29T12:55:32.651Z,54.07
2017-09-29T12:58:00.169Z,50.37
2017-09-29T13:00:28.487Z,53.40
2017-09-29T13:02:56.778Z,58.53
2017-09-29T13:05:25.081Z,56.47
2017-09-29T13:07:53.378Z,54.60
2017-09-29T13:10:20.905Z,62.73
2017-09-29T13:12:48.448Z,51.57
2017-09-29T13:15:15.978Z,58.07
2017-09-29T13:17:43.521Z,56.80
2017-09-29T13:20:11.807Z,50.80
2017-09-29T13:22:39.365Z,57.47
2017-09-29T13:25:06.890Z,57.80
2017-09-29T13:27:34.435Z,50.33
2017-09-29T13:30:01.959Z,53.00
2017-09-29T13:32:29.507Z,59.90
2017-09-29T13:34:57.036Z,52.10
2017-09-29T13:37:25.347Z,51.47
2017-09-29T13:39:52.877Z,54.77
2017-09-29T13:42:20.408Z,55.47
2017-09-29T13:44:47.945Z,46.87
2017-09-29T13:47:15.477Z,46.53
2017-09-29T13:49:43.013Z,54.03
2017-09-29T13:52:10.535Z,44.57
2017-09-29T13:54:38.843Z,44.83
2017-09-29T13:57:06.370Z,47.60
2017-09-29T13:59:34.680Z,47.33
2017-09-29T14:02:02.208Z,46.30
2017-09-29T14:04:29.756Z,43.73
2017-09-29T14:06:57.286Z,38.37
2017-09-29T14:09:24.810Z,41.60
2017-09-29T14:11:53.113Z,42.73
2017-09-29T14:14:20.634Z,50.03
2017-09-29T14:16:48.182Z,45.37
2017-09-29T14:19:15.701Z,45.70
2017-09-29T14:21:43.241Z,43.07
2017-09-29T14:24:10.768Z,44.00
2017-09-29T14:26:38.314Z,54.10
2017-09-29T14:29:05.842Z,44.07
2017-09-29T14:31:34.153Z,50.53
2017-09-29T14:34:01.678Z,49.10
2017-09-29T14:36:29.229Z,47.17
2017-09-29T14:38:56.757Z,50.60
2017-09-29T14:41:24.283Z,56.37
2017-09-29T14:43:51.827Z,53.77
2017-09-29T14:46:19.361Z,57.53
2017-09-29T14:48:47.671Z,53.13
2017-09-29T14:51:15.959Z,57.23
2017-09-29T14:53:44.270Z,60.30
2017-09-29T14:56:11.796Z,56.40
2017-09-29T14:58:39.345Z,58.07
2017-09-29T15:01:06.879Z,47.33
2017-09-29T15:03:34.422Z,53.00
2017-09-29T15:06:01.946Z,57.63
2017-09-29T15:08:30.239Z,59.27
2017-09-29T15:10:57.790Z,57.20
2017-09-29T15:13:25.318Z,60.00
2017-09-29T15:15:53.627Z,52.37
2017-09-29T15:18:21.158Z,47.63
2017-09-29T15:20:48.697Z,45.20
2017-09-29T15:23:16.225Z,62.83
2017-09-29T15:25:43.770Z,55.57
2017-09-29T15:28:11.290Z,56.50
2017-09-29T15:30:38.829Z,55.90
2017-09-29T15:33:06.360Z,51.47
2017-09-29T15:35:33.890Z,62.43
2017-09-29T15:38:01.431Z,56.70
2017-09-29T15:40:29.719Z,51.63
2017-09-29T15:42:57.259Z,52.13
2017-09-29T15:45:24.790Z,54.33
2017-09-29T15:47:53.095Z,51.87
2017-09-29T15:50:20.617Z,54.27
2017-09-29T15:52:48.158Z,52.20
2017-09-29T15:55:15.679Z,43.80
2017-09-29T15:57:43.235Z,49.70
2017-09-29T16:00:11.538Z,51.97
2017-09-29T16:02:39.078Z,56.43
2017-09-29T16:05:07.393Z,54.60
2017-09-29T16:07:34.918Z,46.50
2017-09-29T16:10:02.466Z,48.10
2017-09-29T16:12:29.998Z,35.80
2017-09-29T16:14:57.551Z,30.80
2017-09-29T16:17:25.073Z,39.93
2017-09-29T16:19:52.702Z,40.67
2017-09-29T16:22:20.223Z,40.43
2017-09-29T16:24:47.748Z,34.23
2017-09-29T16:27:16.055Z,32.20
2017-09-29T16:29:43.586Z,28.20
2017-09-29T16:32:11.126Z,24.57
2017-09-29T16:34:38.690Z,33.67
2017-09-29T16:37:06.225Z,25.50
2017-09-29T16:39:33.749Z,25.60
2017-09-29T16:42:01.289Z,40.30
2017-09-29T16:44:28.819Z,39.57
2017-09-29T16:46:56.369Z,28.43
2017-09-29T16:49:24.661Z,34.37
2017-09-29T16:51:52.182Z,39.00
2017-09-29T16:54:19.724Z,25.20
2017-09-29T16:56:47.250Z,25.60
2017-09-29T16:59:14.795Z,29.60
2017-09-29T17:01:42.318Z,33.87
2017-09-29T17:04:10.632Z,24.47
2017-09-29T17:06:38.167Z,21.47
2017-09-29T17:09:05.715Z,19.57
2017-09-29T17:11:33.239Z,22.40
2017-09-29T17:14:01.536Z,20.40
2017-09-29T17:16:29.087Z,21.30
2017-09-29T17:18:56.611Z,16.90
2017-09-29T17:21:24.924Z,15.77
2017-09-29T17:23:52.451Z,17.23
2017-09-29T17:26:19.994Z,17.83
2017-09-29T17:28:47.514Z,15.27
2017-09-29T17:31:15.823Z,12.23
2017-09-29T17:33:43.347Z,11.50
2017-09-29T17:36:10.891Z,15.60
2017-09-29T17:38:38.419Z,11.60
2017-09-29T17:41:05.971Z,14.63
2017-09-29T17:43:33.498Z,13.60
2017-09-29T17:46:01.791Z,16.30
2017-09-29T17:48:30.099Z,13.67
2017-09-29T17:50:57.628Z,14.70
2017-09-29T17:53:25.175Z,14.07
2017-09-29T17:55:53.466Z,50.57
2017-09-29T17:58:21.777Z,18.83
2017-09-29T18:00:49.306Z,14.20
2017-09-29T18:03:17.615Z,13.83
2017-09-29T18:05:45.899Z,10.13
2017-09-29T18:08:13.455Z,16.70
2017-09-29T18:10:41.746Z,21.27
2017-09-29T18:13:09.272Z,19.30
2017-09-29T18:15:36.813Z,21.97
2017-09-29T18:18:05.955Z,19.77
2017-09-29T18:20:33.503Z,22.40
2017-09-29T18:23:01.026Z,22.37
2017-09-29T18:25:28.570Z,23.33
2017-09-29T18:27:56.098Z,23.73
2017-09-29T18:30:23.654Z,25.43
2017-09-29T18:32:51.191Z,19.33
2017-09-29T18:35:18.750Z,20.10
2017-09-29T18:37:47.034Z,21.33
2017-09-29T18:40:17.070Z,29.97
2017-09-29T18:42:44.612Z,21.13
2017-09-29T18:45:16.095Z,21.00
2017-09-29T18:47:43.639Z,18.70
2017-09-29T18:50:11.927Z,27.17
2017-09-29T18:52:39.477Z,107.37
2017-09-29T18:55:06.998Z,18.90
2017-09-29T18:57:34.535Z,17.60
2017-09-29T19:00:02.084Z,19.40
2017-09-29T19:02:29.626Z,17.87
2017-09-29T19:04:57.153Z,28.43
2017-09-29T19:07:24.695Z,25.17
2017-09-29T19:09:52.291Z,23.53
2017-09-29T19:12:19.825Z,30.07
2017-09-29T19:14:47.370Z,23.07
2017-09-29T19:17:14.895Z,29.20
2017-09-29T19:19:42.439Z,29.93
2017-09-29T19:22:10.739Z,26.37
2017-09-29T19:24:38.283Z,22.20
2017-09-29T19:27:05.814Z,34.63
2017-09-29T19:29:33.364Z,41.33
2017-09-29T19:32:00.886Z,34.47
2017-09-29T19:34:28.434Z,34.23
2017-09-29T19:36:55.963Z,29.10
2017-09-29T19:39:24.279Z,27.90
2017-09-29T19:41:51.798Z,26.27
2017-09-29T19:44:19.341Z,25.13
2017-09-29T19:46:46.857Z,28.80
2017-09-29T19:49:15.175Z,49.90
2017-09-29T19:51:42.698Z,48.50
2017-09-29T19:54:10.228Z,47.33
2017-09-29T19:56:38.538Z,33.70
2017-09-29T19:59:06.066Z,28.17
2017-09-29T20:01:33.610Z,24.23
2017-09-29T20:04:01.135Z,19.43
2017-09-29T20:06:29.440Z,20.17
2017-09-29T20:08:56.970Z,21.83
2017-09-29T20:11:25.283Z,37.70
2017-09-29T20:13:52.812Z,56.00
2017-09-29T20:16:20.359Z,49.63
2017-09-29T20:18:47.884Z,45.20
2017-09-29T20:21:15.421Z,32.27
2017-09-29T20:23:42.948Z,22.40
2017-09-29T20:26:10.509Z,38.73
2017-09-29T20:28:38.804Z,38.60
2017-09-29T20:31:06.337Z,33.73
2017-09-29T20:33:34.682Z,28.33
2017-09-29T20:36:02.206Z,33.40
2017-09-29T20:38:29.750Z,36.13
2017-09-29T20:40:58.044Z,30.27
2017-09-29T20:43:25.595Z,38.53
2017-09-29T20:45:53.126Z,37.07
2017-09-29T20:48:20.675Z,40.50
2017-09-29T20:50:48.206Z,44.70
2017-09-29T20:53:15.754Z,38.13
2017-09-29T20:55:43.281Z,58.40
2017-09-29T20:58:11.586Z,38.60
2017-09-29T21:00:39.102Z,32.70
2017-09-29T21:03:06.650Z,33.40
2017-09-29T21:05:34.174Z,31.67
2017-09-29T21:08:02.472Z,30.23
2017-09-29T21:10:30.010Z,28.93
2017-09-29T21:12:57.536Z,25.40
2017-09-29T21:15:25.085Z,32.77
2017-09-29T21:17:52.615Z,36.50
2017-09-29T21:20:20.169Z,27.83
2017-09-29T21:22:47.694Z,24.17
2017-09-29T21:25:15.238Z,26.30
2017-09-29T21:27:42.764Z,24.23
2017-09-29T21:30:10.313Z,17.97
2017-09-29T21:32:37.838Z,24.87
2017-09-29T21:35:05.390Z,25.80
2017-09-29T21:37:33.681Z,22.23
2017-09-29T21:40:01.209Z,25.53
2017-09-29T21:42:28.749Z,27.20
2017-09-29T21:44:56.273Z,31.53
2017-09-29T21:47:23.820Z,29.73
2017-09-29T21:49:51.351Z,30.00
2017-09-29T21:52:18.897Z,28.10
2017-09-29T21:54:46.426Z,42.07
2017-09-29T21:57:13.962Z,43.73
2017-09-29T21:59:41.494Z,53.33
2017-09-29T22:02:09.038Z,46.63
2017-09-29T22:04:36.564Z,51.13
2017-09-29T22:07:04.131Z,46.90
2017-09-29T22:09:31.649Z,36.23
2017-09-29T22:11:59.173Z,30.20
2017-09-29T22:14:27.492Z,23.37
2017-09-29T22:16:55.019Z,25.93
2017-09-29T22:19:22.563Z,36.23
2017-09-29T22:21:50.098Z,28.27
2017-09-29T22:24:18.407Z,21.40
2017-09-29T22:26:45.936Z,22.63
2017-09-29T22:29:14.246Z,23.70
2017-09-29T22:31:42.351Z,20.80
2017-09-29T22:34:09.898Z,21.50
2017-09-29T22:36:37.427Z,20.63
2017-09-29T22:39:04.975Z,31.03
2017-09-29T22:41:32.500Z,38.10
2017-09-29T22:44:00.056Z,28.53
2017-09-29T22:46:27.584Z,27.97
2017-09-29T22:48:55.106Z,23.60
2017-09-29T22:51:23.421Z,20.80
2017-09-29T22:53:50.943Z,24.80
2017-09-29T22:56:18.494Z,22.33
2017-09-29T22:58:46.015Z,28.60
2017-09-29T23:01:14.330Z,36.60
2017-09-29T23:03:41.861Z,22.20
2017-09-29T23:06:10.166Z,22.83
2017-09-29T23:08:37.692Z,24.47
2017-09-29T23:11:06.008Z,23.33
2017-09-29T23:13:35.040Z,28.53
2017-09-29T23:16:02.602Z,26.77
2017-09-29T23:18:30.134Z,21.37
2017-09-29T23:20:58.448Z,26.10
2017-09-29T23:23:25.966Z,48.93
2017-09-29T23:25:53.517Z,46.57
2017-09-29T23:28:21.039Z,33.97
2017-09-29T23:30:48.563Z,28.00
2017-09-29T23:33:16.106Z,22.07
2017-09-29T23:35:44.393Z,23.77
2017-09-29T23:38:11.944Z,22.97
2017-09-29T23:40:40.239Z,45.53
2017-09-29T23:43:07.786Z,47.37
2017-09-29T23:45:35.312Z,76.70
2017-09-29T23:48:02.859Z,36.50
2017-09-29T23:50:30.388Z,28.40
2017-09-29T23:52:57.944Z,25.17
2017-09-29T23:55:25.472Z,23.10
2017-09-29T23:57:53.755Z,22.37
